sensor_id;sensor_type;location;lat;lon;timestamp;temperature;humidity
65378;SHT31;51982;51.042;13.806;2022-10-15T00:02:04;15.96;85.86
65378;SHT31;51982;51.042;13.806;2022-10-15T00:04:29;15.95;85.84
65378;SHT31;51982;51.042;13.806;2022-10-15T00:06:55;15.93;85.87
65378;SHT31;51982;51.042;13.806;2022-10-15T00:09:20;15.93;85.74
65378;SHT31;51982;51.042;13.806;2022-10-15T00:11:46;15.96;85.72
65378;SHT31;51982;51.042;13.806;2022-10-15T00:14:11;15.92;85.73
65378;SHT31;51982;51.042;13.806;2022-10-15T00:16:36;15.95;85.68
65378;SHT31;51982;51.042;13.806;2022-10-15T00:19:02;15.90;85.59
65378;SHT31;51982;51.042;13.806;2022-10-15T00:21:27;15.92;85.78
65378;SHT31;51982;51.042;13.806;2022-10-15T00:23:53;15.92;85.93
65378;SHT31;51982;51.042;13.806;2022-10-15T00:26:24;15.92;86.07
65378;SHT31;51982;51.042;13.806;2022-10-15T00:28:51;15.87;86.36
65378;SHT31;51982;51.042;13.806;2022-10-15T00:31:18;15.87;86.32
65378;SHT31;51982;51.042;13.806;2022-10-15T00:33:49;15.87;86.37
65378;SHT31;51982;51.042;13.806;2022-10-15T00:36:17;15.85;86.32
65378;SHT31;51982;51.042;13.806;2022-10-15T00:38:42;15.85;86.32
65378;SHT31;51982;51.042;13.806;2022-10-15T00:41:12;15.82;86.28
65378;SHT31;51982;51.042;13.806;2022-10-15T00:43:48;15.79;86.08
65378;SHT31;51982;51.042;13.806;2022-10-15T00:46:35;15.81;86.13
65378;SHT31;51982;51.042;13.806;2022-10-15T00:51:41;15.79;85.98
65378;SHT31;51982;51.042;13.806;2022-10-15T00:54:08;15.79;85.94
65378;SHT31;51982;51.042;13.806;2022-10-15T00:56:33;15.82;85.94
65378;SHT31;51982;51.042;13.806;2022-10-15T00:59:00;15.81;86.06
65378;SHT31;51982;51.042;13.806;2022-10-15T01:01:26;15.79;86.14
65378;SHT31;51982;51.042;13.806;2022-10-15T01:03:53;15.79;86.17
65378;SHT31;51982;51.042;13.806;2022-10-15T01:06:19;15.79;86.27
65378;SHT31;51982;51.042;13.806;2022-10-15T01:08:45;15.75;86.32
65378;SHT31;51982;51.042;13.806;2022-10-15T01:11:29;15.75;86.15
65378;SHT31;51982;51.042;13.806;2022-10-15T01:14:28;15.75;86.13
65378;SHT31;51982;51.042;13.806;2022-10-15T01:17:21;15.76;86.07
65378;SHT31;51982;51.042;13.806;2022-10-15T01:23:18;15.75;86.17
65378;SHT31;51982;51.042;13.806;2022-10-15T01:28:57;15.76;86.41
65378;SHT31;51982;51.042;13.806;2022-10-15T01:34:37;15.73;87.05
65378;SHT31;51982;51.042;13.806;2022-10-15T01:37:14;15.70;87.03
65378;SHT31;51982;51.042;13.806;2022-10-15T01:39:48;15.67;87.60
65378;SHT31;51982;51.042;13.806;2022-10-15T01:42:27;15.63;87.63
65378;SHT31;51982;51.042;13.806;2022-10-15T01:44:57;15.62;87.76
65378;SHT31;51982;51.042;13.806;2022-10-15T01:47:31;15.59;87.97
65378;SHT31;51982;51.042;13.806;2022-10-15T01:49:59;15.61;87.92
65378;SHT31;51982;51.042;13.806;2022-10-15T01:52:29;15.62;88.11
65378;SHT31;51982;51.042;13.806;2022-10-15T01:54:56;15.58;88.02
65378;SHT31;51982;51.042;13.806;2022-10-15T01:57:23;15.56;88.15
65378;SHT31;51982;51.042;13.806;2022-10-15T01:59:50;15.56;88.27
65378;SHT31;51982;51.042;13.806;2022-10-15T02:02:15;15.56;88.16
65378;SHT31;51982;51.042;13.806;2022-10-15T02:04:41;15.55;88.27
65378;SHT31;51982;51.042;13.806;2022-10-15T02:07:27;15.52;88.38
65378;SHT31;51982;51.042;13.806;2022-10-15T02:10:14;15.54;88.23
65378;SHT31;51982;51.042;13.806;2022-10-15T02:16:12;15.56;87.93
65378;SHT31;51982;51.042;13.806;2022-10-15T02:18:59;15.56;87.70
65378;SHT31;51982;51.042;13.806;2022-10-15T02:21:49;15.55;87.77
65378;SHT31;51982;51.042;13.806;2022-10-15T02:24:22;15.55;87.88
65378;SHT31;51982;51.042;13.806;2022-10-15T02:26:49;15.54;87.83
65378;SHT31;51982;51.042;13.806;2022-10-15T02:29:19;15.52;87.60
65378;SHT31;51982;51.042;13.806;2022-10-15T02:31:46;15.54;87.51
65378;SHT31;51982;51.042;13.806;2022-10-15T02:34:16;15.56;87.39
65378;SHT31;51982;51.042;13.806;2022-10-15T02:36:42;15.56;87.27
65378;SHT31;51982;51.042;13.806;2022-10-15T02:39:14;15.56;87.18
65378;SHT31;51982;51.042;13.806;2022-10-15T02:41:42;15.56;87.25
65378;SHT31;51982;51.042;13.806;2022-10-15T02:44:07;15.58;87.12
65378;SHT31;51982;51.042;13.806;2022-10-15T02:46:32;15.58;87.03
65378;SHT31;51982;51.042;13.806;2022-10-15T02:48:58;15.61;86.99
65378;SHT31;51982;51.042;13.806;2022-10-15T02:51:23;15.59;87.08
65378;SHT31;51982;51.042;13.806;2022-10-15T02:53:49;15.61;86.99
65378;SHT31;51982;51.042;13.806;2022-10-15T02:56:14;15.61;86.98
65378;SHT31;51982;51.042;13.806;2022-10-15T02:58:40;15.61;86.88
65378;SHT31;51982;51.042;13.806;2022-10-15T03:01:05;15.62;86.91
65378;SHT31;51982;51.042;13.806;2022-10-15T03:03:30;15.61;86.97
65378;SHT31;51982;51.042;13.806;2022-10-15T03:05:56;15.63;86.87
65378;SHT31;51982;51.042;13.806;2022-10-15T03:08:21;15.62;86.89
65378;SHT31;51982;51.042;13.806;2022-10-15T03:10:46;15.62;86.79
65378;SHT31;51982;51.042;13.806;2022-10-15T03:13:12;15.63;86.80
65378;SHT31;51982;51.042;13.806;2022-10-15T03:15:37;15.62;86.76
65378;SHT31;51982;51.042;13.806;2022-10-15T03:18:03;15.62;86.74
65378;SHT31;51982;51.042;13.806;2022-10-15T03:20:29;15.62;86.73
65378;SHT31;51982;51.042;13.806;2022-10-15T03:22:54;15.61;86.90
65378;SHT31;51982;51.042;13.806;2022-10-15T03:25:20;15.61;86.79
65378;SHT31;51982;51.042;13.806;2022-10-15T03:27:45;15.61;86.83
65378;SHT31;51982;51.042;13.806;2022-10-15T03:30:10;15.62;86.90
65378;SHT31;51982;51.042;13.806;2022-10-15T03:32:36;15.62;86.85
65378;SHT31;51982;51.042;13.806;2022-10-15T03:35:01;15.63;86.85
65378;SHT31;51982;51.042;13.806;2022-10-15T03:37:26;15.62;86.88
65378;SHT31;51982;51.042;13.806;2022-10-15T03:39:51;15.62;86.76
65378;SHT31;51982;51.042;13.806;2022-10-15T03:42:17;15.61;86.85
65378;SHT31;51982;51.042;13.806;2022-10-15T03:44:42;15.62;86.81
65378;SHT31;51982;51.042;13.806;2022-10-15T03:47:07;15.63;86.86
65378;SHT31;51982;51.042;13.806;2022-10-15T03:49:32;15.63;86.84
65378;SHT31;51982;51.042;13.806;2022-10-15T03:51:58;15.65;86.83
65378;SHT31;51982;51.042;13.806;2022-10-15T03:54:23;15.65;86.73
65378;SHT31;51982;51.042;13.806;2022-10-15T03:56:48;15.67;86.76
65378;SHT31;51982;51.042;13.806;2022-10-15T03:59:14;15.66;86.61
65378;SHT31;51982;51.042;13.806;2022-10-15T04:01:43;15.66;86.57
65378;SHT31;51982;51.042;13.806;2022-10-15T04:04:10;15.67;86.50
65378;SHT31;51982;51.042;13.806;2022-10-15T04:06:36;15.65;86.41
65378;SHT31;51982;51.042;13.806;2022-10-15T04:09:02;15.66;86.48
65378;SHT31;51982;51.042;13.806;2022-10-15T04:11:27;15.66;86.49
65378;SHT31;51982;51.042;13.806;2022-10-15T04:13:53;15.66;86.38
65378;SHT31;51982;51.042;13.806;2022-10-15T04:16:18;15.63;86.45
65378;SHT31;51982;51.042;13.806;2022-10-15T04:18:43;15.65;86.31
65378;SHT31;51982;51.042;13.806;2022-10-15T04:21:09;15.66;86.22
65378;SHT31;51982;51.042;13.806;2022-10-15T04:23:34;15.66;86.31
65378;SHT31;51982;51.042;13.806;2022-10-15T04:26:00;15.67;86.24
65378;SHT31;51982;51.042;13.806;2022-10-15T04:28:26;15.69;86.17
65378;SHT31;51982;51.042;13.806;2022-10-15T04:30:59;15.67;86.30
65378;SHT31;51982;51.042;13.806;2022-10-15T04:33:25;15.69;86.27
65378;SHT31;51982;51.042;13.806;2022-10-15T04:36:20;15.63;86.52
65378;SHT31;51982;51.042;13.806;2022-10-15T04:38:45;15.61;86.85
65378;SHT31;51982;51.042;13.806;2022-10-15T04:41:11;15.62;86.73
65378;SHT31;51982;51.042;13.806;2022-10-15T04:43:37;15.58;86.99
65378;SHT31;51982;51.042;13.806;2022-10-15T04:46:04;15.58;87.18
65378;SHT31;51982;51.042;13.806;2022-10-15T04:48:31;15.54;87.64
65378;SHT31;51982;51.042;13.806;2022-10-15T04:51:08;15.51;87.88
65378;SHT31;51982;51.042;13.806;2022-10-15T04:53:34;15.48;88.08
65378;SHT31;51982;51.042;13.806;2022-10-15T04:56:05;15.46;88.30
65378;SHT31;51982;51.042;13.806;2022-10-15T04:58:31;15.45;88.45
65378;SHT31;51982;51.042;13.806;2022-10-15T05:01:02;15.39;88.56
65378;SHT31;51982;51.042;13.806;2022-10-15T05:03:28;15.41;88.64
65378;SHT31;51982;51.042;13.806;2022-10-15T05:05:59;15.36;88.76
65378;SHT31;51982;51.042;13.806;2022-10-15T05:08:25;15.35;88.84
65378;SHT31;51982;51.042;13.806;2022-10-15T05:10:50;15.38;88.95
65378;SHT31;51982;51.042;13.806;2022-10-15T05:13:16;15.38;89.00
65378;SHT31;51982;51.042;13.806;2022-10-15T05:15:41;15.35;89.12
65378;SHT31;51982;51.042;13.806;2022-10-15T05:18:06;15.38;89.20
65378;SHT31;51982;51.042;13.806;2022-10-15T05:20:31;15.39;89.34
65378;SHT31;51982;51.042;13.806;2022-10-15T05:22:57;15.39;89.46
65378;SHT31;51982;51.042;13.806;2022-10-15T05:25:22;15.36;89.61
65378;SHT31;51982;51.042;13.806;2022-10-15T05:27:47;15.38;89.61
65378;SHT31;51982;51.042;13.806;2022-10-15T05:30:13;15.38;89.47
65378;SHT31;51982;51.042;13.806;2022-10-15T05:32:38;15.39;89.38
65378;SHT31;51982;51.042;13.806;2022-10-15T05:35:03;15.44;89.42
65378;SHT31;51982;51.042;13.806;2022-10-15T05:37:29;15.41;89.42
65378;SHT31;51982;51.042;13.806;2022-10-15T05:39:54;15.39;89.46
65378;SHT31;51982;51.042;13.806;2022-10-15T05:42:19;15.38;89.33
65378;SHT31;51982;51.042;13.806;2022-10-15T05:44:45;15.42;89.18
65378;SHT31;51982;51.042;13.806;2022-10-15T05:47:10;15.44;89.15
65378;SHT31;51982;51.042;13.806;2022-10-15T05:49:36;15.44;89.06
65378;SHT31;51982;51.042;13.806;2022-10-15T05:52:02;15.46;89.15
65378;SHT31;51982;51.042;13.806;2022-10-15T05:54:27;15.48;88.95
65378;SHT31;51982;51.042;13.806;2022-10-15T05:56:53;15.49;88.79
65378;SHT31;51982;51.042;13.806;2022-10-15T05:59:18;15.49;88.70
65378;SHT31;51982;51.042;13.806;2022-10-15T06:01:43;15.51;88.60
65378;SHT31;51982;51.042;13.806;2022-10-15T06:04:09;15.52;88.53
65378;SHT31;51982;51.042;13.806;2022-10-15T06:06:34;15.54;88.46
65378;SHT31;51982;51.042;13.806;2022-10-15T06:08:59;15.52;88.57
65378;SHT31;51982;51.042;13.806;2022-10-15T06:11:26;15.52;88.56
65378;SHT31;51982;51.042;13.806;2022-10-15T06:13:51;15.51;88.63
65378;SHT31;51982;51.042;13.806;2022-10-15T06:16:17;15.54;88.45
65378;SHT31;51982;51.042;13.806;2022-10-15T06:18:42;15.58;88.38
65378;SHT31;51982;51.042;13.806;2022-10-15T06:21:09;15.58;88.30
65378;SHT31;51982;51.042;13.806;2022-10-15T06:23:35;15.59;88.27
65378;SHT31;51982;51.042;13.806;2022-10-15T06:26:04;15.61;88.20
65378;SHT31;51982;51.042;13.806;2022-10-15T06:28:30;15.63;88.05
65378;SHT31;51982;51.042;13.806;2022-10-15T06:30:57;15.65;88.13
65378;SHT31;51982;51.042;13.806;2022-10-15T06:33:23;15.72;87.95
65378;SHT31;51982;51.042;13.806;2022-10-15T06:35:49;15.76;87.77
65378;SHT31;51982;51.042;13.806;2022-10-15T06:38:14;15.83;87.67
65378;SHT31;51982;51.042;13.806;2022-10-15T06:40:39;15.89;87.52
65378;SHT31;51982;51.042;13.806;2022-10-15T06:43:06;15.93;87.45
65378;SHT31;51982;51.042;13.806;2022-10-15T06:45:33;15.97;87.47
65378;SHT31;51982;51.042;13.806;2022-10-15T06:48:01;15.99;87.42
65378;SHT31;51982;51.042;13.806;2022-10-15T06:50:26;16.00;87.39
65378;SHT31;51982;51.042;13.806;2022-10-15T06:52:51;16.05;87.39
65378;SHT31;51982;51.042;13.806;2022-10-15T06:55:16;16.06;87.11
65378;SHT31;51982;51.042;13.806;2022-10-15T06:57:42;16.09;86.93
65378;SHT31;51982;51.042;13.806;2022-10-15T07:00:07;16.13;86.80
65378;SHT31;51982;51.042;13.806;2022-10-15T07:02:34;16.16;86.79
65378;SHT31;51982;51.042;13.806;2022-10-15T07:05:00;16.20;86.66
65378;SHT31;51982;51.042;13.806;2022-10-15T07:07:25;16.17;86.69
65378;SHT31;51982;51.042;13.806;2022-10-15T07:09:50;16.17;86.67
65378;SHT31;51982;51.042;13.806;2022-10-15T07:12:18;16.21;86.78
65378;SHT31;51982;51.042;13.806;2022-10-15T07:14:46;16.26;86.79
65378;SHT31;51982;51.042;13.806;2022-10-15T07:17:11;16.30;86.70
65378;SHT31;51982;51.042;13.806;2022-10-15T07:19:36;16.34;86.68
65378;SHT31;51982;51.042;13.806;2022-10-15T07:22:01;16.37;86.38
65378;SHT31;51982;51.042;13.806;2022-10-15T07:24:27;16.41;86.20
65378;SHT31;51982;51.042;13.806;2022-10-15T07:26:52;16.44;86.20
65378;SHT31;51982;51.042;13.806;2022-10-15T07:29:17;16.50;86.23
65378;SHT31;51982;51.042;13.806;2022-10-15T07:31:42;16.53;86.30
65378;SHT31;51982;51.042;13.806;2022-10-15T07:34:08;16.57;86.17
65378;SHT31;51982;51.042;13.806;2022-10-15T07:36:33;16.61;86.21
65378;SHT31;51982;51.042;13.806;2022-10-15T07:38:58;16.67;86.16
65378;SHT31;51982;51.042;13.806;2022-10-15T07:41:24;16.74;85.90
65378;SHT31;51982;51.042;13.806;2022-10-15T07:43:51;16.81;85.72
65378;SHT31;51982;51.042;13.806;2022-10-15T07:46:16;16.94;85.56
65378;SHT31;51982;51.042;13.806;2022-10-15T07:48:42;17.02;85.18
65378;SHT31;51982;51.042;13.806;2022-10-15T07:52:36;17.14;85.13
65378;SHT31;51982;51.042;13.806;2022-10-15T07:55:02;17.15;85.02
65378;SHT31;51982;51.042;13.806;2022-10-15T07:57:27;17.26;85.09
65378;SHT31;51982;51.042;13.806;2022-10-15T07:59:53;17.33;85.03
65378;SHT31;51982;51.042;13.806;2022-10-15T08:02:18;17.43;84.80
65378;SHT31;51982;51.042;13.806;2022-10-15T08:04:44;17.52;84.76
65378;SHT31;51982;51.042;13.806;2022-10-15T08:07:10;17.57;84.56
65378;SHT31;51982;51.042;13.806;2022-10-15T08:09:35;17.57;84.42
65378;SHT31;51982;51.042;13.806;2022-10-15T08:12:00;17.54;84.36
65378;SHT31;51982;51.042;13.806;2022-10-15T08:14:26;17.45;84.37
65378;SHT31;51982;51.042;13.806;2022-10-15T08:16:51;17.43;84.47
65378;SHT31;51982;51.042;13.806;2022-10-15T08:19:16;17.40;84.70
65378;SHT31;51982;51.042;13.806;2022-10-15T08:21:43;17.42;84.53
65378;SHT31;51982;51.042;13.806;2022-10-15T08:24:08;17.40;84.42
65378;SHT31;51982;51.042;13.806;2022-10-15T08:26:35;17.49;84.36
65378;SHT31;51982;51.042;13.806;2022-10-15T08:29:00;17.54;84.37
65378;SHT31;51982;51.042;13.806;2022-10-15T08:31:25;17.63;84.40
65378;SHT31;51982;51.042;13.806;2022-10-15T08:33:51;17.69;84.33
65378;SHT31;51982;51.042;13.806;2022-10-15T08:36:17;17.70;84.38
65378;SHT31;51982;51.042;13.806;2022-10-15T08:38:42;17.76;84.46
65378;SHT31;51982;51.042;13.806;2022-10-15T08:41:19;17.73;84.52
65378;SHT31;51982;51.042;13.806;2022-10-15T08:43:46;17.79;84.74
65378;SHT31;51982;51.042;13.806;2022-10-15T08:46:19;17.72;84.76
65378;SHT31;51982;51.042;13.806;2022-10-15T08:48:49;17.72;85.07
65378;SHT31;51982;51.042;13.806;2022-10-15T08:51:19;17.69;85.13
65378;SHT31;51982;51.042;13.806;2022-10-15T08:53:51;17.69;85.13
65378;SHT31;51982;51.042;13.806;2022-10-15T08:56:23;17.70;85.24
65378;SHT31;51982;51.042;13.806;2022-10-15T09:01:57;17.69;85.25
65378;SHT31;51982;51.042;13.806;2022-10-15T09:04:30;17.67;85.24
65378;SHT31;51982;51.042;13.806;2022-10-15T09:07:05;17.69;85.35
65378;SHT31;51982;51.042;13.806;2022-10-15T09:09:38;17.66;85.30
65378;SHT31;51982;51.042;13.806;2022-10-15T09:15:13;17.60;85.35
65378;SHT31;51982;51.042;13.806;2022-10-15T09:17:40;17.69;85.25
65378;SHT31;51982;51.042;13.806;2022-10-15T09:20:14;17.79;84.95
65378;SHT31;51982;51.042;13.806;2022-10-15T09:22:40;17.97;84.71
65378;SHT31;51982;51.042;13.806;2022-10-15T09:25:17;18.10;84.48
65378;SHT31;51982;51.042;13.806;2022-10-15T09:27:45;18.17;84.34
65378;SHT31;51982;51.042;13.806;2022-10-15T09:30:34;18.20;83.67
65378;SHT31;51982;51.042;13.806;2022-10-15T09:33:32;18.20;83.35
65378;SHT31;51982;51.042;13.806;2022-10-15T09:36:21;18.28;83.89
65378;SHT31;51982;51.042;13.806;2022-10-15T09:41:43;18.28;83.50
65378;SHT31;51982;51.042;13.806;2022-10-15T09:44:13;18.21;83.81
65378;SHT31;51982;51.042;13.806;2022-10-15T09:46:46;18.07;83.50
65378;SHT31;51982;51.042;13.806;2022-10-15T09:49:15;18.05;83.81
65378;SHT31;51982;51.042;13.806;2022-10-15T09:52:07;18.08;83.49
65378;SHT31;51982;51.042;13.806;2022-10-15T09:55:09;18.14;83.58
65378;SHT31;51982;51.042;13.806;2022-10-15T09:57:46;18.15;83.66
65378;SHT31;51982;51.042;13.806;2022-10-15T10:00:12;18.18;83.76
65378;SHT31;51982;51.042;13.806;2022-10-15T10:02:38;18.24;83.69
65378;SHT31;51982;51.042;13.806;2022-10-15T10:05:19;18.25;83.49
65378;SHT31;51982;51.042;13.806;2022-10-15T10:07:45;18.28;83.48
65378;SHT31;51982;51.042;13.806;2022-10-15T10:12:47;18.61;83.36
65378;SHT31;51982;51.042;13.806;2022-10-15T10:15:30;18.84;82.58
65378;SHT31;51982;51.042;13.806;2022-10-15T10:17:56;18.95;82.65
65378;SHT31;51982;51.042;13.806;2022-10-15T10:20:24;18.96;82.67
65378;SHT31;51982;51.042;13.806;2022-10-15T10:22:58;18.95;82.71
65378;SHT31;51982;51.042;13.806;2022-10-15T10:25:31;18.91;82.16
65378;SHT31;51982;51.042;13.806;2022-10-15T10:28:02;18.91;82.77
65378;SHT31;51982;51.042;13.806;2022-10-15T10:30:33;18.89;82.75
65378;SHT31;51982;51.042;13.806;2022-10-15T10:32:59;18.84;82.74
65378;SHT31;51982;51.042;13.806;2022-10-15T10:35:35;18.82;82.09
65378;SHT31;51982;51.042;13.806;2022-10-15T10:38:26;18.86;82.16
65378;SHT31;51982;51.042;13.806;2022-10-15T10:40:55;18.95;82.20
65378;SHT31;51982;51.042;13.806;2022-10-15T10:43:24;18.93;82.05
65378;SHT31;51982;51.042;13.806;2022-10-15T10:45:58;18.91;82.10
65378;SHT31;51982;51.042;13.806;2022-10-15T10:48:36;18.88;82.21
65378;SHT31;51982;51.042;13.806;2022-10-15T10:51:10;18.93;82.29
65378;SHT31;51982;51.042;13.806;2022-10-15T10:53:51;19.06;82.20
65378;SHT31;51982;51.042;13.806;2022-10-15T10:56:21;19.26;82.13
65378;SHT31;51982;51.042;13.806;2022-10-15T10:58:49;19.33;81.66
65378;SHT31;51982;51.042;13.806;2022-10-15T11:01:17;19.33;81.48
65378;SHT31;51982;51.042;13.806;2022-10-15T11:03:44;19.27;81.46
65378;SHT31;51982;51.042;13.806;2022-10-15T11:15:35;19.16;81.79
65378;SHT31;51982;51.042;13.806;2022-10-15T11:21:01;19.15;82.18
65378;SHT31;51982;51.042;13.806;2022-10-15T11:26:15;19.22;81.85
65378;SHT31;51982;51.042;13.806;2022-10-15T11:34:43;19.20;82.24
65378;SHT31;51982;51.042;13.806;2022-10-15T11:37:16;19.16;82.29
65378;SHT31;51982;51.042;13.806;2022-10-15T11:40:11;19.13;82.19
65378;SHT31;51982;51.042;13.806;2022-10-15T11:42:56;19.22;82.25
65378;SHT31;51982;51.042;13.806;2022-10-15T11:47:57;19.17;82.43
65378;SHT31;51982;51.042;13.806;2022-10-15T11:50:44;19.15;82.56
65378;SHT31;51982;51.042;13.806;2022-10-15T11:56:05;19.20;82.32
65378;SHT31;51982;51.042;13.806;2022-10-15T11:58:42;19.24;82.30
65378;SHT31;51982;51.042;13.806;2022-10-15T12:01:37;19.28;82.30
65378;SHT31;51982;51.042;13.806;2022-10-15T12:04:16;19.33;82.27
65378;SHT31;51982;51.042;13.806;2022-10-15T12:06:46;19.38;82.26
65378;SHT31;51982;51.042;13.806;2022-10-15T12:09:18;19.50;81.99
65378;SHT31;51982;51.042;13.806;2022-10-15T12:11:57;19.58;81.73
65378;SHT31;51982;51.042;13.806;2022-10-15T12:14:31;19.63;81.85
65378;SHT31;51982;51.042;13.806;2022-10-15T12:17:15;19.67;82.19
65378;SHT31;51982;51.042;13.806;2022-10-15T12:19:54;19.68;81.97
65378;SHT31;51982;51.042;13.806;2022-10-15T12:25:40;19.61;81.76
65378;SHT31;51982;51.042;13.806;2022-10-15T12:28:16;19.56;82.01
65378;SHT31;51982;51.042;13.806;2022-10-15T12:31:02;19.45;82.11
65378;SHT31;51982;51.042;13.806;2022-10-15T12:33:30;19.37;82.37
65378;SHT31;51982;51.042;13.806;2022-10-15T12:36:01;19.33;82.53
65378;SHT31;51982;51.042;13.806;2022-10-15T12:38:32;19.26;82.65
65378;SHT31;51982;51.042;13.806;2022-10-15T12:41:08;19.22;82.91
65378;SHT31;51982;51.042;13.806;2022-10-15T12:43:40;19.16;83.38
65378;SHT31;51982;51.042;13.806;2022-10-15T12:46:07;19.15;84.08
65378;SHT31;51982;51.042;13.806;2022-10-15T12:48:43;19.26;83.99
65378;SHT31;51982;51.042;13.806;2022-10-15T12:53:41;19.30;84.23
65378;SHT31;51982;51.042;13.806;2022-10-15T12:58:38;19.33;84.19
65378;SHT31;51982;51.042;13.806;2022-10-15T13:04:07;19.41;84.11
65378;SHT31;51982;51.042;13.806;2022-10-15T13:06:35;19.49;84.07
65378;SHT31;51982;51.042;13.806;2022-10-15T13:11:43;19.54;83.73
65378;SHT31;51982;51.042;13.806;2022-10-15T13:14:33;19.51;83.44
65378;SHT31;51982;51.042;13.806;2022-10-15T13:17:13;19.56;83.75
65378;SHT31;51982;51.042;13.806;2022-10-15T13:19:46;19.63;83.61
65378;SHT31;51982;51.042;13.806;2022-10-15T13:22:23;19.66;83.68
65378;SHT31;51982;51.042;13.806;2022-10-15T13:24:49;19.60;83.97
65378;SHT31;51982;51.042;13.806;2022-10-15T13:27:21;19.57;84.04
65378;SHT31;51982;51.042;13.806;2022-10-15T13:30:03;19.51;84.22
65378;SHT31;51982;51.042;13.806;2022-10-15T13:32:35;19.38;84.19
65378;SHT31;51982;51.042;13.806;2022-10-15T13:35:03;19.31;84.25
65378;SHT31;51982;51.042;13.806;2022-10-15T13:37:34;19.24;84.23
65378;SHT31;51982;51.042;13.806;2022-10-15T13:40:01;19.22;84.24
65378;SHT31;51982;51.042;13.806;2022-10-15T13:42:27;19.22;84.44
65378;SHT31;51982;51.042;13.806;2022-10-15T13:45:10;19.22;84.59
65378;SHT31;51982;51.042;13.806;2022-10-15T13:47:47;19.24;84.62
65378;SHT31;51982;51.042;13.806;2022-10-15T13:50:30;19.24;84.85
65378;SHT31;51982;51.042;13.806;2022-10-15T13:55:36;19.33;84.70
65378;SHT31;51982;51.042;13.806;2022-10-15T13:58:05;19.28;84.82
65378;SHT31;51982;51.042;13.806;2022-10-15T14:00:40;19.24;84.99
65378;SHT31;51982;51.042;13.806;2022-10-15T14:03:26;19.16;85.57
65378;SHT31;51982;51.042;13.806;2022-10-15T14:05:52;19.07;85.53
65378;SHT31;51982;51.042;13.806;2022-10-15T14:08:32;18.99;85.58
65378;SHT31;51982;51.042;13.806;2022-10-15T14:10:58;18.96;85.72
65378;SHT31;51982;51.042;13.806;2022-10-15T14:13:25;18.92;85.63
65378;SHT31;51982;51.042;13.806;2022-10-15T14:18:41;19.03;85.40
65378;SHT31;51982;51.042;13.806;2022-10-15T14:21:12;19.05;85.38
65378;SHT31;51982;51.042;13.806;2022-10-15T14:23:38;18.99;85.47
65378;SHT31;51982;51.042;13.806;2022-10-15T14:26:05;18.95;85.51
65378;SHT31;51982;51.042;13.806;2022-10-15T14:28:32;18.99;85.41
65378;SHT31;51982;51.042;13.806;2022-10-15T14:30:59;19.02;85.47
65378;SHT31;51982;51.042;13.806;2022-10-15T14:38:43;19.10;85.07
65378;SHT31;51982;51.042;13.806;2022-10-15T14:46:41;19.06;85.01
65378;SHT31;51982;51.042;13.806;2022-10-15T14:51:44;19.10;85.25
65378;SHT31;51982;51.042;13.806;2022-10-15T14:54:19;19.06;85.25
65378;SHT31;51982;51.042;13.806;2022-10-15T14:56:45;19.03;85.31
65378;SHT31;51982;51.042;13.806;2022-10-15T14:59:16;18.98;85.34
65378;SHT31;51982;51.042;13.806;2022-10-15T15:01:53;18.95;85.48
65378;SHT31;51982;51.042;13.806;2022-10-15T15:04:34;18.89;85.58
65378;SHT31;51982;51.042;13.806;2022-10-15T15:06:59;18.88;85.60
65378;SHT31;51982;51.042;13.806;2022-10-15T15:09:24;18.84;85.76
65378;SHT31;51982;51.042;13.806;2022-10-15T15:11:50;18.85;85.89
65378;SHT31;51982;51.042;13.806;2022-10-15T15:14:23;18.85;85.91
65378;SHT31;51982;51.042;13.806;2022-10-15T15:16:49;18.82;85.97
65378;SHT31;51982;51.042;13.806;2022-10-15T15:19:14;18.81;86.02
65378;SHT31;51982;51.042;13.806;2022-10-15T15:21:40;18.77;86.07
65378;SHT31;51982;51.042;13.806;2022-10-15T15:24:05;18.72;86.14
65378;SHT31;51982;51.042;13.806;2022-10-15T15:26:32;18.71;86.23
65378;SHT31;51982;51.042;13.806;2022-10-15T15:28:57;18.68;86.25
65378;SHT31;51982;51.042;13.806;2022-10-15T15:31:23;18.65;86.36
65378;SHT31;51982;51.042;13.806;2022-10-15T15:33:48;18.61;86.42
65378;SHT31;51982;51.042;13.806;2022-10-15T15:36:15;18.54;86.52
65378;SHT31;51982;51.042;13.806;2022-10-15T15:38:41;18.49;86.67
65378;SHT31;51982;51.042;13.806;2022-10-15T15:41:18;18.47;86.78
65378;SHT31;51982;51.042;13.806;2022-10-15T15:43:44;18.44;86.91
65378;SHT31;51982;51.042;13.806;2022-10-15T15:46:10;18.41;86.98
65378;SHT31;51982;51.042;13.806;2022-10-15T15:48:36;18.38;87.01
65378;SHT31;51982;51.042;13.806;2022-10-15T15:51:03;18.30;87.08
65378;SHT31;51982;51.042;13.806;2022-10-15T15:53:29;18.28;87.25
65378;SHT31;51982;51.042;13.806;2022-10-15T15:55:55;18.24;87.36
65378;SHT31;51982;51.042;13.806;2022-10-15T15:58:20;18.20;87.45
65378;SHT31;51982;51.042;13.806;2022-10-15T16:00:45;18.17;87.52
65378;SHT31;51982;51.042;13.806;2022-10-15T16:03:12;18.13;87.62
65378;SHT31;51982;51.042;13.806;2022-10-15T16:05:37;18.08;87.73
65378;SHT31;51982;51.042;13.806;2022-10-15T16:08:04;18.03;87.89
65378;SHT31;51982;51.042;13.806;2022-10-15T16:10:30;18.05;87.96
65378;SHT31;51982;51.042;13.806;2022-10-15T16:12:55;18.04;87.99
65378;SHT31;51982;51.042;13.806;2022-10-15T16:15:20;18.04;87.99
65378;SHT31;51982;51.042;13.806;2022-10-15T16:17:45;17.97;88.08
65378;SHT31;51982;51.042;13.806;2022-10-15T16:20:12;17.91;88.13
65378;SHT31;51982;51.042;13.806;2022-10-15T16:22:38;17.89;88.20
65378;SHT31;51982;51.042;13.806;2022-10-15T16:25:03;17.87;88.24
65378;SHT31;51982;51.042;13.806;2022-10-15T16:27:29;17.81;88.28
65378;SHT31;51982;51.042;13.806;2022-10-15T16:29:54;17.80;88.31
65378;SHT31;51982;51.042;13.806;2022-10-15T16:32:19;17.76;88.45
65378;SHT31;51982;51.042;13.806;2022-10-15T16:34:44;17.69;88.50
65378;SHT31;51982;51.042;13.806;2022-10-15T16:37:10;17.69;88.55
65378;SHT31;51982;51.042;13.806;2022-10-15T16:39:35;17.69;88.58
65378;SHT31;51982;51.042;13.806;2022-10-15T16:42:00;17.66;88.60
65378;SHT31;51982;51.042;13.806;2022-10-15T16:44:26;17.66;88.64
65378;SHT31;51982;51.042;13.806;2022-10-15T16:46:52;17.63;88.72
65378;SHT31;51982;51.042;13.806;2022-10-15T16:49:17;17.65;88.72
65378;SHT31;51982;51.042;13.806;2022-10-15T16:51:42;17.60;88.78
65378;SHT31;51982;51.042;13.806;2022-10-15T16:54:13;17.59;88.79
65378;SHT31;51982;51.042;13.806;2022-10-15T16:56:39;17.62;88.88